Lister — ZDHW6 — position and weather

sailwx.info

Track history (hours):
 
Tides and Currents Weather Stations Pressure Air Temp Water Temp Dewpoint Dewpoint Depression Visibility Wind Speed Wind Dir Waves Ship Positions

Lister

Last reported at 2014-Jul-24 22:32 UTC. Time now 2014-Jul-24 23:05 UTC.
Position N 57°23' E 018°11'.

Length 89 m; draft 4.2 m.

Type: Ship. MMSI: 236381000.

Date/timePositionNaut miles runAvg speedWind from/ knotsBaromVisibWave heightAir tempDewpointWater temp
2014-Jul-24 22:32N 57°23' E 018°11'0 0.0
2014-Jul-24 21:32N 57°23' E 018°11'0 0.0
2014-Jul-24 19:15N 57°23' E 018°11'10 5.8
2014-Jul-24 17:33N 57°18' E 017°56'1212.3
2014-Jul-24 16:33N 57°07' E 017°46'1212.3
2014-Jul-24 15:34N 56°56' E 017°36'1212.1
2014-Jul-24 14:33N 56°45' E 017°26'1212.1
2014-Jul-24 13:34N 56°35' E 017°16'1212.1
2014-Jul-24 12:34N 56°24' E 017°06'1212.1
2014-Jul-24 11:34N 56°13' E 016°55'1211.7
2014-Jul-24 10:33N 56°04' E 016°43'1111.5
2014-Jul-24 09:34N 56°01' E 016°23'1211.7
2014-Jul-24 08:33N 55°60' E 016°02'1211.7
2014-Jul-24 07:34N 56°00' E 015°42'1211.7
2014-Jul-24 06:34N 56°03' E 015°21'1211.6
2014-Jul-24 05:33N 56°06' E 015°01'6 0.3
2014-Jul-23 10:06N 56°02' E 014°53'1011.7
2014-Jul-23 09:15N 55°53' E 014°50'811.7
2014-Jul-23 08:33N 55°45' E 014°46'1211.4
2014-Jul-23 07:30N 55°33' E 014°42'1511.1
2014-Jul-23 06:08N 55°19' E 014°32'611.0
2014-Jul-23 05:33N 55°14' E 014°26'1010.0
2014-Jul-23 04:33N 55°11' E 014°09'1110.9
2014-Jul-23 03:33N 55°11' E 013°50'2211.1
2014-Jul-23 01:33N 55°14' E 013°11'1111.1
2014-Jul-23 00:33N 55°15' E 012°52'10 9.5
2014-Jul-22 23:34N 55°21' E 012°39'1111.1
2014-Jul-22 22:33N 55°32' E 012°45'9 9.2
2014-Jul-22 21:33N 55°38' E 012°57'2 2.3
2014-Jul-22 20:33N 55°37' E 013°00'0 0.0
2014-Jul-22 19:33N 55°37' E 013°00'0 0.0
2014-Jul-22 18:33N 55°37' E 013°00'0 0.0
2014-Jul-22 17:33N 55°37' E 013°00'0 0.0
2014-Jul-22 16:33N 55°37' E 013°00'0 0.0
2014-Jul-22 15:33N 55°37' E 013°00'0 0.0
2014-Jul-22 14:33N 55°37' E 013°00'0 0.0
2014-Jul-22 13:33N 55°37' E 013°00'0 0.0
2014-Jul-22 12:33N 55°37' E 013°00'0 0.0
2014-Jul-22 11:33N 55°37' E 013°00'0 0.0
2014-Jul-22 10:33N 55°37' E 013°00'0 0.0
2014-Jul-22 09:33N 55°37' E 013°00'0 0.0
2014-Jul-22 08:33N 55°37' E 013°00'0 0.0
2014-Jul-22 07:33N 55°37' E 013°00'0 0.0
2014-Jul-22 06:33N 55°37' E 013°00'0 0.0
2014-Jul-22 05:33N 55°37' E 013°00'0 0.0
2014-Jul-22 04:33N 55°37' E 013°00'0 0.0
2014-Jul-22 03:33N 55°37' E 013°00'0 0.1
2014-Jul-22 02:33N 55°37' E 013°00'0 0.0
2014-Jul-22 01:33N 55°37' E 013°00'0 0.0
2014-Jul-22 00:33N 55°37' E 013°00'0 0.0
2014-Jul-21 23:33N 55°37' E 013°00'0 0.0
2014-Jul-21 22:33N 55°37' E 013°00'0 0.0
2014-Jul-21 21:33N 55°37' E 013°00'0 0.0
2014-Jul-21 20:33N 55°37' E 013°00'0 0.0
2014-Jul-21 20:15N 55°37' E 013°00'0 0.0
2014-Jul-21 19:33N 55°37' E 013°00'0 0.3
2014-Jul-21 18:33N 55°37' E 012°60'0 0.3
2014-Jul-21 17:31N 55°37' E 013°00'0 0.0
2014-Jul-21 16:31N 55°37' E 013°00'0 0.0
2014-Jul-21 15:31N 55°37' E 013°00'0 0.0
2014-Jul-21 14:31N 55°37' E 013°00'0 0.0
2014-Jul-21 13:31N 55°37' E 013°00'0 0.0
2014-Jul-21 12:31N 55°37' E 013°00'0 0.0
2014-Jul-21 11:31N 55°37' E 013°00'0 0.0
2014-Jul-21 10:28N 55°37' E 013°00'0 0.0
2014-Jul-21 09:31N 55°37' E 013°00'0 0.1
2014-Jul-21 08:29N 55°37' E 013°00'0 0.0
2014-Jul-21 07:32N 55°37' E 013°00'0 0.0
2014-Jul-21 06:32N 55°37' E 013°00'0 0.0
2014-Jul-21 05:32N 55°37' E 013°00'0 0.0
2014-Jul-21 04:32N 55°37' E 013°00'0 0.0
2014-Jul-21 03:32N 55°37' E 013°00'0 0.0
2014-Jul-21 02:29N 55°37' E 013°00'0 0.0
2014-Jul-21 01:32N 55°37' E 013°00'0 0.0
2014-Jul-21 00:32N 55°37' E 013°00'0 0.0
2014-Jul-20 23:32N 55°37' E 013°00'0 0.0
2014-Jul-20 22:32N 55°37' E 013°00'0 0.0
2014-Jul-20 21:32N 55°37' E 013°00'0 0.0
2014-Jul-20 20:29N 55°37' E 013°00'0 0.0
2014-Jul-20 19:32N 55°37' E 013°00'0 0.0
2014-Jul-20 18:32N 55°37' E 013°00'0 0.0
2014-Jul-20 17:32N 55°37' E 013°00'0 0.0
2014-Jul-20 16:32N 55°37' E 013°00'0 0.0
2014-Jul-20 15:29N 55°37' E 013°00'0 0.0
2014-Jul-20 14:32N 55°37' E 013°00'0 0.0
2014-Jul-20 13:32N 55°37' E 013°00'0 0.0
2014-Jul-20 12:32N 55°37' E 013°00'0 0.0
2014-Jul-20 11:29N 55°37' E 013°00'0 0.0
2014-Jul-20 10:32N 55°37' E 013°00'0 0.0
2014-Jul-20 09:32N 55°37' E 013°00'0 0.0
2014-Jul-20 08:32N 55°37' E 013°00'0 0.0
2014-Jul-20 07:32N 55°37' E 013°00'0 0.0
2014-Jul-20 06:32N 55°37' E 013°00'0 0.0
2014-Jul-20 05:32N 55°37' E 013°00'0 0.0
2014-Jul-20 04:32N 55°37' E 013°00'0 0.0
2014-Jul-20 03:29N 55°37' E 013°00'0 0.0
2014-Jul-20 02:32N 55°37' E 013°00'0 0.0
2014-Jul-20 01:32N 55°37' E 013°00'0 0.0
2014-Jul-20 00:32N 55°37' E 013°00'0 0.0
2014-Jul-19 23:32N 55°37' E 013°00'0 0.0
2014-Jul-19 22:32N 55°37' E 013°00'0 0.0
2014-Jul-19 21:32N 55°37' E 013°00'0 0.0
2014-Jul-19 20:32N 55°37' E 013°00'0 0.0
2014-Jul-19 19:29N 55°37' E 013°00'0 0.0
2014-Jul-19 18:32N 55°37' E 013°00'0 0.0
2014-Jul-19 17:32N 55°37' E 013°00'0 0.0
2014-Jul-19 16:32N 55°37' E 013°00'0 0.0
2014-Jul-19 15:32N 55°37' E 013°00'0 0.0
2014-Jul-19 14:32N 55°37' E 013°00'0 0.0
2014-Jul-19 13:32N 55°37' E 013°00'0 0.0
2014-Jul-19 12:32N 55°37' E 013°00'0 0.0
2014-Jul-19 11:32N 55°37' E 013°00'0 0.0
2014-Jul-19 10:32N 55°37' E 013°00'0 0.0
2014-Jul-19 09:32N 55°37' E 013°00'0 0.0
2014-Jul-19 08:32N 55°37' E 013°00'0 0.0
2014-Jul-19 07:32N 55°37' E 013°00'0 0.0
2014-Jul-19 06:32N 55°37' E 013°00'0 0.0
2014-Jul-19 05:32N 55°37' E 013°00'0 0.0
2014-Jul-19 04:32N 55°37' E 013°00'0 0.0
2014-Jul-19 03:32N 55°37' E 013°00'0 0.0
2014-Jul-19 02:32N 55°37' E 013°00'0 0.0
2014-Jul-19 01:32N 55°37' E 013°00'0 0.0
2014-Jul-19 00:32N 55°37' E 013°00'0 0.0
2014-Jul-18 23:32N 55°37' E 013°00'0 0.0
2014-Jul-18 22:32N 55°37' E 013°00'0 0.0
2014-Jul-18 21:32N 55°37' E 013°00'0 0.0
2014-Jul-18 20:32N 55°37' E 013°00'0 0.0
2014-Jul-18 19:29N 55°37' E 013°00'0 0.0
2014-Jul-18 18:32N 55°37' E 013°00'0 0.0
2014-Jul-18 17:32N 55°37' E 013°00'0 0.0
2014-Jul-18 16:32N 55°37' E 013°00'0 0.0
2014-Jul-18 15:32N 55°37' E 013°00'0 0.0
2014-Jul-18 14:32N 55°37' E 013°00'0 0.0
2014-Jul-18 13:32N 55°37' E 013°00'0 0.0
2014-Jul-18 12:32N 55°37' E 013°00'0 0.0
2014-Jul-18 11:32N 55°37' E 013°00'0 0.2
2014-Jul-18 10:29N 55°37' E 012°60'0 0.0
2014-Jul-18 09:32N 55°37' E 012°60'0 0.0
2014-Jul-18 08:32N 55°37' E 012°60'0 0.0
2014-Jul-18 07:29N 55°37' E 012°60'0 0.0
2014-Jul-18 06:32N 55°37' E 012°60'0 0.0
2014-Jul-18 05:32N 55°37' E 012°60'0 0.0
2014-Jul-18 04:32N 55°37' E 012°60'0 0.0
2014-Jul-18 03:32N 55°37' E 012°60'0 0.0
2014-Jul-18 02:32N 55°37' E 012°60'0 0.0
2014-Jul-18 01:32N 55°37' E 012°60'0 0.0
2014-Jul-18 00:32N 55°37' E 012°60'0 0.0
2014-Jul-17 23:32N 55°37' E 012°60'0 0.0
2014-Jul-17 22:32N 55°37' E 012°60'0 0.0
2014-Jul-17 21:32N 55°37' E 012°60'0 0.0
2014-Jul-17 20:29N 55°37' E 012°60'0 0.0
2014-Jul-17 19:29N 55°37' E 012°60'0 0.0
2014-Jul-17 18:32N 55°37' E 012°60'0 0.0
2014-Jul-17 17:32N 55°37' E 012°60'0 0.0
2014-Jul-17 16:32N 55°37' E 012°60'0 0.0
2014-Jul-17 15:29N 55°37' E 012°60'0 0.0
2014-Jul-17 14:32N 55°37' E 012°60'0 0.0
2014-Jul-17 13:32N 55°37' E 012°60'0 0.0
2014-Jul-17 12:32N 55°37' E 012°60'0 0.0
2014-Jul-17 11:32N 55°37' E 012°60'0 0.0
2014-Jul-17 10:29N 55°37' E 012°60'0 0.0
2014-Jul-17 09:32N 55°37' E 012°60'0 0.0
2014-Jul-17 08:32N 55°37' E 012°60'0 0.0
2014-Jul-17 07:32N 55°37' E 012°60'0 0.0
2014-Jul-17 06:32N 55°37' E 012°60'0 0.0
2014-Jul-17 05:32N 55°37' E 012°60'0 0.0
2014-Jul-17 04:32N 55°37' E 012°60'0 0.0
2014-Jul-17 03:32N 55°37' E 012°60'0 0.0
2014-Jul-17 02:32N 55°37' E 012°60'0 0.0
2014-Jul-17 01:32N 55°37' E 012°60'0 0.0
2014-Jul-17 00:32N 55°37' E 012°60'0 0.0
2014-Jul-16 23:32N 55°37' E 012°60'0 0.0
2014-Jul-16 22:32N 55°37' E 012°60'0 0.0
2014-Jul-16 21:29N 55°37' E 012°60'0 0.0
2014-Jul-16 20:32N 55°37' E 012°60'0 0.0
2014-Jul-16 19:32N 55°37' E 012°60'0 0.0
2014-Jul-16 18:32N 55°37' E 012°60'0 0.0
2014-Jul-16 17:32N 55°37' E 012°60'0 0.0
2014-Jul-16 16:32N 55°37' E 012°60'0 0.0
2014-Jul-16 15:32N 55°37' E 012°60'0 0.0
2014-Jul-16 14:32N 55°37' E 012°60'0 0.0
2014-Jul-16 13:32N 55°37' E 012°60'0 0.0
2014-Jul-16 12:32N 55°37' E 012°60'0 0.0
2014-Jul-16 11:32N 55°37' E 012°60'0 0.0
2014-Jul-16 10:32N 55°37' E 012°60'0 0.0
2014-Jul-16 09:32N 55°37' E 012°60'0 0.0
2014-Jul-16 08:32N 55°37' E 012°60'0 0.0
2014-Jul-16 07:32N 55°37' E 012°60'0 0.0
2014-Jul-16 06:29N 55°37' E 012°60'0 0.0
2014-Jul-16 05:32N 55°37' E 012°60'0 0.0
2014-Jul-16 04:32N 55°37' E 012°60'0 0.0
2014-Jul-16 03:32N 55°37' E 012°60'0 0.0
2014-Jul-16 02:32N 55°37' E 012°60'0 0.0
2014-Jul-16 01:32N 55°37' E 012°60'0 0.0
2014-Jul-16 00:32N 55°37' E 012°60'0 0.0
2014-Jul-15 23:32N 55°37' E 012°60'0 0.0
2014-Jul-15 22:32N 55°37' E 012°60'0 0.0
2014-Jul-15 21:32N 55°37' E 012°60'0 0.0
2014-Jul-15 20:32N 55°37' E 012°60'0 0.0
2014-Jul-15 19:32N 55°37' E 012°60'0 0.0
2014-Jul-15 18:32N 55°37' E 012°60'0 0.0
2014-Jul-15 17:32N 55°37' E 012°60'0 0.0
2014-Jul-15 16:32N 55°37' E 012°60'0 0.0
2014-Jul-15 15:32N 55°37' E 012°60'0 0.0
2014-Jul-15 14:32N 55°37' E 012°60'0 0.0
2014-Jul-15 13:32N 55°37' E 012°60'0 0.0
2014-Jul-15 12:32N 55°37' E 012°60'0 0.0
2014-Jul-15 11:32N 55°37' E 012°60'0 0.0
2014-Jul-15 10:32N 55°37' E 012°60'0 0.0
2014-Jul-15 09:32N 55°37' E 012°60'0 0.0
2014-Jul-15 08:32N 55°37' E 012°60'0 0.0
2014-Jul-15 07:32N 55°37' E 012°60'0 0.0
2014-Jul-15 06:32N 55°37' E 012°60'0 0.0
2014-Jul-15 05:32N 55°37' E 012°60'0 0.0
2014-Jul-15 04:32N 55°37' E 012°60'0 0.0
2014-Jul-15 03:32N 55°37' E 012°60'0 0.0
2014-Jul-15 02:32N 55°37' E 012°60'0 0.0
2014-Jul-15 01:32N 55°37' E 012°60'0 0.0
2014-Jul-15 00:32N 55°37' E 012°60'0 0.0
2014-Jul-14 23:29N 55°37' E 012°60'  
Track history (hours):
 
Tides and Currents Weather Stations Pressure Air Temp Water Temp Dewpoint Dewpoint Depression Visibility Wind Speed Wind Dir Waves Ship Positions

Lister

Last reported at 2014-Jul-24 22:32 UTC. Time now 2014-Jul-24 23:05 UTC.
Position N 57°23' E 018°11'.

Length 89 m; draft 4.2 m.

Type: Ship. MMSI: 236381000.

Date/timePositionNaut miles runAvg speedWind from/ knotsBaromVisibWave heightAir tempDewpointWater temp
2014-Jul-24 22:32N 57°23' E 018°11'0 0.0
2014-Jul-24 21:32N 57°23' E 018°11'0 0.0
2014-Jul-24 19:15N 57°23' E 018°11'10 5.8
2014-Jul-24 17:33N 57°18' E 017°56'1212.3
2014-Jul-24 16:33N 57°07' E 017°46'1212.3
2014-Jul-24 15:34N 56°56' E 017°36'1212.1
2014-Jul-24 14:33N 56°45' E 017°26'1212.1
2014-Jul-24 13:34N 56°35' E 017°16'1212.1
2014-Jul-24 12:34N 56°24' E 017°06'1212.1
2014-Jul-24 11:34N 56°13' E 016°55'1211.7
2014-Jul-24 10:33N 56°04' E 016°43'1111.5
2014-Jul-24 09:34N 56°01' E 016°23'1211.7
2014-Jul-24 08:33N 55°60' E 016°02'1211.7
2014-Jul-24 07:34N 56°00' E 015°42'1211.7
2014-Jul-24 06:34N 56°03' E 015°21'1211.6
2014-Jul-24 05:33N 56°06' E 015°01'6 0.3
2014-Jul-23 10:06N 56°02' E 014°53'1011.7
2014-Jul-23 09:15N 55°53' E 014°50'811.7
2014-Jul-23 08:33N 55°45' E 014°46'1211.4
2014-Jul-23 07:30N 55°33' E 014°42'1511.1
2014-Jul-23 06:08N 55°19' E 014°32'611.0
2014-Jul-23 05:33N 55°14' E 014°26'1010.0
2014-Jul-23 04:33N 55°11' E 014°09'1110.9
2014-Jul-23 03:33N 55°11' E 013°50'2211.1
2014-Jul-23 01:33N 55°14' E 013°11'1111.1
2014-Jul-23 00:33N 55°15' E 012°52'10 9.5
2014-Jul-22 23:34N 55°21' E 012°39'1111.1
2014-Jul-22 22:33N 55°32' E 012°45'9 9.2
2014-Jul-22 21:33N 55°38' E 012°57'2 2.3
2014-Jul-22 20:33N 55°37' E 013°00'0 0.0
2014-Jul-22 19:33N 55°37' E 013°00'0 0.0
2014-Jul-22 18:33N 55°37' E 013°00'0 0.0
2014-Jul-22 17:33N 55°37' E 013°00'0 0.0
2014-Jul-22 16:33N 55°37' E 013°00'0 0.0
2014-Jul-22 15:33N 55°37' E 013°00'0 0.0
2014-Jul-22 14:33N 55°37' E 013°00'0 0.0
2014-Jul-22 13:33N 55°37' E 013°00'0 0.0
2014-Jul-22 12:33N 55°37' E 013°00'0 0.0
2014-Jul-22 11:33N 55°37' E 013°00'0 0.0
2014-Jul-22 10:33N 55°37' E 013°00'0 0.0
2014-Jul-22 09:33N 55°37' E 013°00'0 0.0
2014-Jul-22 08:33N 55°37' E 013°00'0 0.0
2014-Jul-22 07:33N 55°37' E 013°00'0 0.0
2014-Jul-22 06:33N 55°37' E 013°00'0 0.0
2014-Jul-22 05:33N 55°37' E 013°00'0 0.0
2014-Jul-22 04:33N 55°37' E 013°00'0 0.0
2014-Jul-22 03:33N 55°37' E 013°00'0 0.1
2014-Jul-22 02:33N 55°37' E 013°00'0 0.0
2014-Jul-22 01:33N 55°37' E 013°00'0 0.0
2014-Jul-22 00:33N 55°37' E 013°00'0 0.0
2014-Jul-21 23:33N 55°37' E 013°00'0 0.0
2014-Jul-21 22:33N 55°37' E 013°00'0 0.0
2014-Jul-21 21:33N 55°37' E 013°00'0 0.0
2014-Jul-21 20:33N 55°37' E 013°00'0 0.0
2014-Jul-21 20:15N 55°37' E 013°00'0 0.0
2014-Jul-21 19:33N 55°37' E 013°00'0 0.3
2014-Jul-21 18:33N 55°37' E 012°60'0 0.3
2014-Jul-21 17:31N 55°37' E 013°00'0 0.0
2014-Jul-21 16:31N 55°37' E 013°00'0 0.0
2014-Jul-21 15:31N 55°37' E 013°00'0 0.0
2014-Jul-21 14:31N 55°37' E 013°00'0 0.0
2014-Jul-21 13:31N 55°37' E 013°00'0 0.0
2014-Jul-21 12:31N 55°37' E 013°00'0 0.0
2014-Jul-21 11:31N 55°37' E 013°00'0 0.0
2014-Jul-21 10:28N 55°37' E 013°00'0 0.0
2014-Jul-21 09:31N 55°37' E 013°00'0 0.1
2014-Jul-21 08:29N 55°37' E 013°00'0 0.0
2014-Jul-21 07:32N 55°37' E 013°00'0 0.0
2014-Jul-21 06:32N 55°37' E 013°00'0 0.0
2014-Jul-21 05:32N 55°37' E 013°00'0 0.0
2014-Jul-21 04:32N 55°37' E 013°00'0 0.0
2014-Jul-21 03:32N 55°37' E 013°00'0 0.0
2014-Jul-21 02:29N 55°37' E 013°00'0 0.0
2014-Jul-21 01:32N 55°37' E 013°00'0 0.0
2014-Jul-21 00:32N 55°37' E 013°00'0 0.0
2014-Jul-20 23:32N 55°37' E 013°00'0 0.0
2014-Jul-20 22:32N 55°37' E 013°00'0 0.0
2014-Jul-20 21:32N 55°37' E 013°00'0 0.0
2014-Jul-20 20:29N 55°37' E 013°00'0 0.0
2014-Jul-20 19:32N 55°37' E 013°00'0 0.0
2014-Jul-20 18:32N 55°37' E 013°00'0 0.0
2014-Jul-20 17:32N 55°37' E 013°00'0 0.0
2014-Jul-20 16:32N 55°37' E 013°00'0 0.0
2014-Jul-20 15:29N 55°37' E 013°00'0 0.0
2014-Jul-20 14:32N 55°37' E 013°00'0 0.0
2014-Jul-20 13:32N 55°37' E 013°00'0 0.0
2014-Jul-20 12:32N 55°37' E 013°00'0 0.0
2014-Jul-20 11:29N 55°37' E 013°00'0 0.0
2014-Jul-20 10:32N 55°37' E 013°00'0 0.0
2014-Jul-20 09:32N 55°37' E 013°00'0 0.0
2014-Jul-20 08:32N 55°37' E 013°00'0 0.0
2014-Jul-20 07:32N 55°37' E 013°00'0 0.0
2014-Jul-20 06:32N 55°37' E 013°00'0 0.0
2014-Jul-20 05:32N 55°37' E 013°00'0 0.0
2014-Jul-20 04:32N 55°37' E 013°00'0 0.0
2014-Jul-20 03:29N 55°37' E 013°00'0 0.0
2014-Jul-20 02:32N 55°37' E 013°00'0 0.0
2014-Jul-20 01:32N 55°37' E 013°00'0 0.0
2014-Jul-20 00:32N 55°37' E 013°00'0 0.0
2014-Jul-19 23:32N 55°37' E 013°00'0 0.0
2014-Jul-19 22:32N 55°37' E 013°00'0 0.0
2014-Jul-19 21:32N 55°37' E 013°00'0 0.0
2014-Jul-19 20:32N 55°37' E 013°00'0 0.0
2014-Jul-19 19:29N 55°37' E 013°00'0 0.0
2014-Jul-19 18:32N 55°37' E 013°00'0 0.0
2014-Jul-19 17:32N 55°37' E 013°00'0 0.0
2014-Jul-19 16:32N 55°37' E 013°00'0 0.0
2014-Jul-19 15:32N 55°37' E 013°00'0 0.0
2014-Jul-19 14:32N 55°37' E 013°00'0 0.0
2014-Jul-19 13:32N 55°37' E 013°00'0 0.0
2014-Jul-19 12:32N 55°37' E 013°00'0 0.0
2014-Jul-19 11:32N 55°37' E 013°00'0 0.0
2014-Jul-19 10:32N 55°37' E 013°00'0 0.0
2014-Jul-19 09:32N 55°37' E 013°00'0 0.0
2014-Jul-19 08:32N 55°37' E 013°00'0 0.0
2014-Jul-19 07:32N 55°37' E 013°00'0 0.0
2014-Jul-19 06:32N 55°37' E 013°00'0 0.0
2014-Jul-19 05:32N 55°37' E 013°00'0 0.0
2014-Jul-19 04:32N 55°37' E 013°00'0 0.0
2014-Jul-19 03:32N 55°37' E 013°00'0 0.0
2014-Jul-19 02:32N 55°37' E 013°00'0 0.0
2014-Jul-19 01:32N 55°37' E 013°00'0 0.0
2014-Jul-19 00:32N 55°37' E 013°00'0 0.0
2014-Jul-18 23:32N 55°37' E 013°00'0 0.0
2014-Jul-18 22:32N 55°37' E 013°00'0 0.0
2014-Jul-18 21:32N 55°37' E 013°00'0 0.0
2014-Jul-18 20:32N 55°37' E 013°00'0 0.0
2014-Jul-18 19:29N 55°37' E 013°00'0 0.0
2014-Jul-18 18:32N 55°37' E 013°00'0 0.0
2014-Jul-18 17:32N 55°37' E 013°00'0 0.0
2014-Jul-18 16:32N 55°37' E 013°00'0 0.0
2014-Jul-18 15:32N 55°37' E 013°00'0 0.0
2014-Jul-18 14:32N 55°37' E 013°00'0 0.0
2014-Jul-18 13:32N 55°37' E 013°00'0 0.0
2014-Jul-18 12:32N 55°37' E 013°00'0 0.0
2014-Jul-18 11:32N 55°37' E 013°00'0 0.2
2014-Jul-18 10:29N 55°37' E 012°60'0 0.0
2014-Jul-18 09:32N 55°37' E 012°60'0 0.0
2014-Jul-18 08:32N 55°37' E 012°60'0 0.0
2014-Jul-18 07:29N 55°37' E 012°60'0 0.0
2014-Jul-18 06:32N 55°37' E 012°60'0 0.0
2014-Jul-18 05:32N 55°37' E 012°60'0 0.0
2014-Jul-18 04:32N 55°37' E 012°60'0 0.0
2014-Jul-18 03:32N 55°37' E 012°60'0 0.0
2014-Jul-18 02:32N 55°37' E 012°60'0 0.0
2014-Jul-18 01:32N 55°37' E 012°60'0 0.0
2014-Jul-18 00:32N 55°37' E 012°60'0 0.0
2014-Jul-17 23:32N 55°37' E 012°60'0 0.0
2014-Jul-17 22:32N 55°37' E 012°60'0 0.0
2014-Jul-17 21:32N 55°37' E 012°60'0 0.0
2014-Jul-17 20:29N 55°37' E 012°60'0 0.0
2014-Jul-17 19:29N 55°37' E 012°60'0 0.0
2014-Jul-17 18:32N 55°37' E 012°60'0 0.0
2014-Jul-17 17:32N 55°37' E 012°60'0 0.0
2014-Jul-17 16:32N 55°37' E 012°60'0 0.0
2014-Jul-17 15:29N 55°37' E 012°60'0 0.0
2014-Jul-17 14:32N 55°37' E 012°60'0 0.0
2014-Jul-17 13:32N 55°37' E 012°60'0 0.0
2014-Jul-17 12:32N 55°37' E 012°60'0 0.0
2014-Jul-17 11:32N 55°37' E 012°60'0 0.0
2014-Jul-17 10:29N 55°37' E 012°60'0 0.0
2014-Jul-17 09:32N 55°37' E 012°60'0 0.0
2014-Jul-17 08:32N 55°37' E 012°60'0 0.0
2014-Jul-17 07:32N 55°37' E 012°60'0 0.0
2014-Jul-17 06:32N 55°37' E 012°60'0 0.0
2014-Jul-17 05:32N 55°37' E 012°60'0 0.0
2014-Jul-17 04:32N 55°37' E 012°60'0 0.0
2014-Jul-17 03:32N 55°37' E 012°60'0 0.0
2014-Jul-17 02:32N 55°37' E 012°60'0 0.0
2014-Jul-17 01:32N 55°37' E 012°60'0 0.0
2014-Jul-17 00:32N 55°37' E 012°60'0 0.0
2014-Jul-16 23:32N 55°37' E 012°60'0 0.0
2014-Jul-16 22:32N 55°37' E 012°60'0 0.0
2014-Jul-16 21:29N 55°37' E 012°60'0 0.0
2014-Jul-16 20:32N 55°37' E 012°60'0 0.0
2014-Jul-16 19:32N 55°37' E 012°60'0 0.0
2014-Jul-16 18:32N 55°37' E 012°60'0 0.0
2014-Jul-16 17:32N 55°37' E 012°60'0 0.0
2014-Jul-16 16:32N 55°37' E 012°60'0 0.0
2014-Jul-16 15:32N 55°37' E 012°60'0 0.0
2014-Jul-16 14:32N 55°37' E 012°60'0 0.0
2014-Jul-16 13:32N 55°37' E 012°60'0 0.0
2014-Jul-16 12:32N 55°37' E 012°60'0 0.0
2014-Jul-16 11:32N 55°37' E 012°60'0 0.0
2014-Jul-16 10:32N 55°37' E 012°60'0 0.0
2014-Jul-16 09:32N 55°37' E 012°60'0 0.0
2014-Jul-16 08:32N 55°37' E 012°60'0 0.0
2014-Jul-16 07:32N 55°37' E 012°60'0 0.0
2014-Jul-16 06:29N 55°37' E 012°60'0 0.0
2014-Jul-16 05:32N 55°37' E 012°60'0 0.0
2014-Jul-16 04:32N 55°37' E 012°60'0 0.0
2014-Jul-16 03:32N 55°37' E 012°60'0 0.0
2014-Jul-16 02:32N 55°37' E 012°60'0 0.0
2014-Jul-16 01:32N 55°37' E 012°60'0 0.0
2014-Jul-16 00:32N 55°37' E 012°60'0 0.0
2014-Jul-15 23:32N 55°37' E 012°60'0 0.0
2014-Jul-15 22:32N 55°37' E 012°60'0 0.0
2014-Jul-15 21:32N 55°37' E 012°60'0 0.0
2014-Jul-15 20:32N 55°37' E 012°60'0 0.0
2014-Jul-15 19:32N 55°37' E 012°60'0 0.0
2014-Jul-15 18:32N 55°37' E 012°60'0 0.0
2014-Jul-15 17:32N 55°37' E 012°60'0 0.0
2014-Jul-15 16:32N 55°37' E 012°60'0 0.0
2014-Jul-15 15:32N 55°37' E 012°60'0 0.0
2014-Jul-15 14:32N 55°37' E 012°60'0 0.0
2014-Jul-15 13:32N 55°37' E 012°60'0 0.0
2014-Jul-15 12:32N 55°37' E 012°60'0 0.0
2014-Jul-15 11:32N 55°37' E 012°60'0 0.0
2014-Jul-15 10:32N 55°37' E 012°60'0 0.0
2014-Jul-15 09:32N 55°37' E 012°60'0 0.0
2014-Jul-15 08:32N 55°37' E 012°60'0 0.0
2014-Jul-15 07:32N 55°37' E 012°60'0 0.0
2014-Jul-15 06:32N 55°37' E 012°60'0 0.0
2014-Jul-15 05:32N 55°37' E 012°60'0 0.0
2014-Jul-15 04:32N 55°37' E 012°60'0 0.0
2014-Jul-15 03:32N 55°37' E 012°60'0 0.0
2014-Jul-15 02:32N 55°37' E 012°60'0 0.0
2014-Jul-15 01:32N 55°37' E 012°60'0 0.0
2014-Jul-15 00:32N 55°37' E 012°60'0 0.0
2014-Jul-14 23:29N 55°37' E 012°60'  

Dump ship's entire track history